createdAt,value
2022-09-20T00:01:08.517Z,15.43
2022-09-20T00:03:39.089Z,15.15
2022-09-20T00:06:06.793Z,16.17
2022-09-20T00:08:32.603Z,12.10
2022-09-20T00:11:06.959Z,11.80
2022-09-20T00:13:34.450Z,9.57
2022-09-20T00:16:05.119Z,10.43
2022-09-20T00:18:30.973Z,17.70
2022-09-20T00:20:56.778Z,15.57
2022-09-20T00:23:22.661Z,13.32
2022-09-20T00:26:00.180Z,11.05
2022-09-20T00:28:27.239Z,13.25
2022-09-20T00:30:54.342Z,9.90
2022-09-20T00:33:21.035Z,16.20
2022-09-20T00:35:47.219Z,17.75
2022-09-20T00:38:13.938Z,16.50
2022-09-20T00:40:42.177Z,13.45
2022-09-20T00:43:14.949Z,18.40
2022-09-20T00:45:43.698Z,14.35
2022-09-20T00:48:28.554Z,18.05
2022-09-20T00:51:09.060Z,17.02
2022-09-20T00:53:43.024Z,19.15
2022-09-20T00:56:17.027Z,13.02
2022-09-20T00:59:03.700Z,18.98
2022-09-20T01:01:31.135Z,16.58
2022-09-20T01:03:59.189Z,14.80
2022-09-20T01:06:25.038Z,18.02
2022-09-20T01:08:53.143Z,18.92
2022-09-20T01:11:19.147Z,15.32
2022-09-20T01:13:44.929Z,15.18
2022-09-20T01:16:13.236Z,15.05
2022-09-20T01:18:40.537Z,22.77
2022-09-20T01:21:08.623Z,15.68
2022-09-20T01:24:04.424Z,15.70
2022-09-20T01:26:53.773Z,14.52
2022-09-20T01:29:48.259Z,17.13
2022-09-20T01:32:20.085Z,18.83
2022-09-20T01:34:50.369Z,16.45
2022-09-20T01:37:39.070Z,15.45
2022-09-20T01:40:12.400Z,14.80
2022-09-20T01:42:49.318Z,16.90
2022-09-20T01:45:27.496Z,11.43
2022-09-20T01:48:12.873Z,10.30
2022-09-20T01:51:09.149Z,14.07
2022-09-20T01:53:52.958Z,14.35
2022-09-20T01:56:55.335Z,16.02
2022-09-20T01:59:55.169Z,14.07
2022-09-20T02:02:49.034Z,12.25
2022-09-20T02:05:30.183Z,16.52
2022-09-20T02:08:14.559Z,17.42
2022-09-20T02:10:49.204Z,17.27
2022-09-20T02:13:31.437Z,14.53
2022-09-20T02:16:32.809Z,8.77
2022-09-20T02:19:30.200Z,11.48
2022-09-20T02:22:18.478Z,17.83
2022-09-20T02:24:55.082Z,15.13
2022-09-20T02:27:28.937Z,10.45
2022-09-20T02:30:07.824Z,15.75
2022-09-20T02:32:42.323Z,15.15
2022-09-20T02:35:17.252Z,11.68
2022-09-20T02:37:59.298Z,18.13
2022-09-20T02:40:25.083Z,15.95
2022-09-20T02:43:08.085Z,16.75
2022-09-20T02:46:02.212Z,9.50
2022-09-20T02:48:44.849Z,16.05
2022-09-20T02:51:13.672Z,12.98
2022-09-20T02:53:44.516Z,15.80
2022-09-20T02:56:29.149Z,15.57
2022-09-20T02:59:19.812Z,11.68
2022-09-20T03:02:01.381Z,14.65
2022-09-20T03:04:56.502Z,13.25
2022-09-20T03:07:22.267Z,22.50
2022-09-20T03:10:13.668Z,13.40
2022-09-20T03:12:59.114Z,13.00
2022-09-20T03:15:27.959Z,12.05
2022-09-20T03:18:10.192Z,14.77
2022-09-20T03:21:04.007Z,12.30
2022-09-20T03:24:00.612Z,13.98
2022-09-20T03:26:52.898Z,11.98
2022-09-20T03:29:30.945Z,8.55
2022-09-20T03:32:27.488Z,11.75
2022-09-20T03:35:26.842Z,13.40
2022-09-20T03:38:07.982Z,14.65
2022-09-20T03:40:59.667Z,12.57
2022-09-20T03:43:46.088Z,15.02
2022-09-20T03:46:45.913Z,13.35
2022-09-20T03:49:32.824Z,13.00
2022-09-20T03:52:21.852Z,14.70
2022-09-20T03:55:09.620Z,22.65
2022-09-20T03:57:44.498Z,12.00
2022-09-20T04:00:52.425Z,22.95
2022-09-20T04:03:35.534Z,11.48
2022-09-20T04:06:08.700Z,13.45
2022-09-20T04:09:08.126Z,12.75
2022-09-20T04:12:01.568Z,13.82
2022-09-20T04:14:49.993Z,11.20
2022-09-20T04:17:26.747Z,13.70
2022-09-20T04:20:02.197Z,13.00
2022-09-20T04:22:29.194Z,11.63
2022-09-20T04:24:55.893Z,13.45
2022-09-20T04:28:04.272Z,18.48
2022-09-20T04:30:36.832Z,19.50
2022-09-20T04:33:34.198Z,19.92
2022-09-20T04:36:30.919Z,18.67
2022-09-20T04:39:01.327Z,14.70
2022-09-20T04:41:50.510Z,14.50
2022-09-20T04:44:51.717Z,16.25
2022-09-20T04:47:36.228Z,24.13
2022-09-20T04:50:35.664Z,27.25
2022-09-20T04:53:40.179Z,24.00
2022-09-20T04:56:47.000Z,18.67
2022-09-20T05:02:21.627Z,19.05
2022-09-20T05:05:25.096Z,22.13
2022-09-20T05:08:00.190Z,22.65
2022-09-20T05:10:47.740Z,20.90
2022-09-20T05:13:29.089Z,23.73
2022-09-20T05:16:05.534Z,20.42
2022-09-20T05:19:02.184Z,18.33
2022-09-20T05:21:49.334Z,19.85
2022-09-20T05:24:44.589Z,18.95
2022-09-20T05:27:13.484Z,22.27
2022-09-20T05:30:04.872Z,24.20
2022-09-20T05:32:40.508Z,29.55
2022-09-20T05:35:20.768Z,24.02
2022-09-20T05:38:12.863Z,27.27
2022-09-20T05:40:53.617Z,27.05
2022-09-20T05:43:29.883Z,27.85
2022-09-20T05:46:05.089Z,26.38
2022-09-20T05:48:38.199Z,26.77
2022-09-20T05:51:25.283Z,25.83
2022-09-20T05:53:53.763Z,26.77
2022-09-20T05:56:22.734Z,26.00
2022-09-20T05:59:11.700Z,24.90
2022-09-20T06:01:50.226Z,25.85
2022-09-20T06:04:40.308Z,26.67
2022-09-20T06:07:24.011Z,21.60
2022-09-20T06:10:30.306Z,24.13
2022-09-20T06:13:02.138Z,30.17
2022-09-20T06:15:30.827Z,23.33
2022-09-20T06:18:09.127Z,32.08
2022-09-20T06:21:12.596Z,24.85
2022-09-20T06:23:38.584Z,30.00
2022-09-20T06:26:16.573Z,33.58
2022-09-20T06:28:47.997Z,30.20
2022-09-20T06:31:16.526Z,28.67
2022-09-20T06:33:54.152Z,31.83
2022-09-20T06:36:47.682Z,28.50
2022-09-20T06:39:35.185Z,32.10
2022-09-20T06:42:01.294Z,34.17
2022-09-20T06:44:27.087Z,44.67
2022-09-20T06:46:55.742Z,38.35
2022-09-20T06:49:23.328Z,35.25
2022-09-20T06:51:51.946Z,30.73
2022-09-20T06:54:20.951Z,34.95
2022-09-20T06:56:48.958Z,43.35
2022-09-20T06:59:14.768Z,34.58
2022-09-20T07:01:41.565Z,31.80
2022-09-20T07:04:08.942Z,35.15
2022-09-20T07:06:35.172Z,32.35
2022-09-20T07:09:01.508Z,48.17
2022-09-20T07:11:27.363Z,38.33
2022-09-20T07:13:55.327Z,37.90
2022-09-20T07:16:21.536Z,38.95
2022-09-20T07:18:48.145Z,45.60
2022-09-20T07:21:16.543Z,34.50
2022-09-20T07:23:45.047Z,41.72
2022-09-20T07:26:23.003Z,37.00
2022-09-20T07:28:49.736Z,36.47
2022-09-20T07:31:20.458Z,37.13
2022-09-20T07:33:46.566Z,37.35
2022-09-20T07:36:12.677Z,37.50
2022-09-20T07:38:39.979Z,32.92
2022-09-20T07:41:06.213Z,32.47
2022-09-20T07:43:32.795Z,32.08
2022-09-20T07:45:59.435Z,29.10
2022-09-20T07:48:28.637Z,28.35
2022-09-20T07:51:04.668Z,29.35
2022-09-20T07:53:32.568Z,26.02
2022-09-20T07:56:04.222Z,31.33
2022-09-20T07:58:32.028Z,25.90
2022-09-20T08:01:04.342Z,25.95
2022-09-20T08:03:32.223Z,30.10
2022-09-20T08:06:03.402Z,31.50
2022-09-20T08:08:32.598Z,17.80
2022-09-20T08:11:07.756Z,20.20
2022-09-20T08:16:23.561Z,21.65
2022-09-20T08:18:58.398Z,16.80
2022-09-20T08:21:33.914Z,16.10
2022-09-20T08:28:57.265Z,13.25
2022-09-20T08:31:25.737Z,12.57
2022-09-20T08:33:52.388Z,12.98
2022-09-20T08:36:21.346Z,14.68
2022-09-20T08:41:38.447Z,8.95
2022-09-20T08:44:16.321Z,10.13
2022-09-20T08:46:48.012Z,8.60
2022-09-20T08:49:26.969Z,7.18
2022-09-20T08:51:57.193Z,9.27
2022-09-20T08:54:24.142Z,7.03
2022-09-20T08:56:51.044Z,6.43
2022-09-20T08:59:21.673Z,8.07
2022-09-20T09:01:49.083Z,10.55
2022-09-20T09:04:18.127Z,6.15
2022-09-20T09:06:45.001Z,7.68
2022-09-20T09:09:25.068Z,11.20
2022-09-20T09:11:52.436Z,11.57
2022-09-20T09:14:48.644Z,8.80
2022-09-20T09:17:17.571Z,7.30
2022-09-20T09:19:46.239Z,7.57
2022-09-20T09:22:17.946Z,9.18
2022-09-20T09:24:43.688Z,9.02
2022-09-20T09:27:18.656Z,14.77
2022-09-20T09:29:53.137Z,8.25
2022-09-20T09:32:30.501Z,7.97
2022-09-20T09:35:21.508Z,8.65
2022-09-20T09:37:54.736Z,11.60
2022-09-20T09:40:20.922Z,8.77
2022-09-20T09:42:58.989Z,10.32
2022-09-20T09:45:29.798Z,3.22
2022-09-20T09:47:57.351Z,2.70
2022-09-20T09:50:30.361Z,4.47
2022-09-20T09:53:09.271Z,3.50
2022-09-20T09:56:00.959Z,3.53
2022-09-20T09:59:01.870Z,4.53
2022-09-20T10:01:45.967Z,3.83
2022-09-20T10:04:35.012Z,6.07
2022-09-20T10:07:12.967Z,5.22
2022-09-20T10:09:47.711Z,5.82
2022-09-20T10:12:19.965Z,5.15
2022-09-20T10:15:23.396Z,5.03
2022-09-20T10:18:16.454Z,8.73
2022-09-20T10:21:04.626Z,7.68
2022-09-20T10:24:03.587Z,8.45
2022-09-20T10:26:52.836Z,7.70
2022-09-20T10:29:40.417Z,4.43
2022-09-20T10:32:06.324Z,5.95
2022-09-20T10:34:56.792Z,6.43
2022-09-20T10:38:10.320Z,7.55
2022-09-20T10:41:22.608Z,6.88
2022-09-20T10:44:07.253Z,4.90
2022-09-20T10:47:10.804Z,4.35
2022-09-20T10:50:12.685Z,4.82
2022-09-20T10:52:56.106Z,5.95
2022-09-20T10:55:26.346Z,4.63
2022-09-20T10:58:26.128Z,7.40
2022-09-20T11:00:54.820Z,7.38
2022-09-20T11:03:23.696Z,5.57
2022-09-20T11:06:20.622Z,4.30
2022-09-20T11:08:53.452Z,5.45
2022-09-20T11:11:24.912Z,4.65
2022-09-20T11:13:53.335Z,7.18
2022-09-20T11:16:27.405Z,2.13
2022-09-20T11:19:04.993Z,3.60
2022-09-20T11:21:37.653Z,3.05
2022-09-20T11:24:12.265Z,6.65
2022-09-20T11:26:45.495Z,2.65
2022-09-20T11:29:35.372Z,2.72
2022-09-20T11:32:20.372Z,3.70
2022-09-20T11:34:56.380Z,3.03
2022-09-20T11:37:32.595Z,3.03
2022-09-20T11:40:03.911Z,4.43
2022-09-20T11:42:35.729Z,3.22
2022-09-20T11:45:02.742Z,2.53
2022-09-20T11:47:54.365Z,3.55
2022-09-20T11:50:38.958Z,3.50
2022-09-20T11:53:26.393Z,4.55
2022-09-20T11:56:20.234Z,2.10
2022-09-20T11:58:52.052Z,3.58
2022-09-20T12:01:38.502Z,3.22
2022-09-20T12:04:33.602Z,2.90
2022-09-20T12:07:11.331Z,8.00
2022-09-20T12:09:42.067Z,7.97
2022-09-20T12:12:14.430Z,4.82
2022-09-20T12:14:41.523Z,4.13
2022-09-20T12:17:44.567Z,6.32
2022-09-20T12:20:41.708Z,8.98
2022-09-20T12:23:38.359Z,5.68
2022-09-20T12:26:22.336Z,3.58
2022-09-20T12:28:50.906Z,6.28
2022-09-20T12:31:28.378Z,13.68
2022-09-20T12:33:56.216Z,3.60
2022-09-20T12:36:22.902Z,6.00
2022-09-20T12:38:56.961Z,3.42
2022-09-20T12:41:28.585Z,4.85
2022-09-20T12:44:02.001Z,3.53
2022-09-20T12:46:36.126Z,2.17
2022-09-20T12:49:43.514Z,1.53
2022-09-20T12:52:51.275Z,5.00
2022-09-20T12:55:32.902Z,4.13
2022-09-20T12:58:13.622Z,3.85
2022-09-20T13:01:00.304Z,3.10
2022-09-20T13:03:31.282Z,4.05
2022-09-20T13:06:06.160Z,4.35
2022-09-20T13:08:35.926Z,3.65
2022-09-20T13:11:20.230Z,3.70
2022-09-20T13:13:48.975Z,2.55
2022-09-20T13:16:21.869Z,3.45
2022-09-20T13:19:04.445Z,3.83
2022-09-20T13:21:33.062Z,3.00
2022-09-20T13:24:00.648Z,4.28
2022-09-20T13:26:33.289Z,4.03
2022-09-20T13:29:00.468Z,3.60
2022-09-20T13:31:31.910Z,5.22
2022-09-20T13:34:18.186Z,4.63
2022-09-20T13:36:45.124Z,3.38
2022-09-20T13:39:28.496Z,3.97
2022-09-20T13:42:01.405Z,3.13
2022-09-20T13:44:32.776Z,2.63
2022-09-20T13:46:58.626Z,2.15
2022-09-20T13:49:24.798Z,2.95
2022-09-20T13:51:51.352Z,3.45
2022-09-20T13:54:27.695Z,2.72
2022-09-20T13:57:12.495Z,4.22
2022-09-20T13:59:45.874Z,4.65
2022-09-20T14:02:30.369Z,3.05
2022-09-20T14:04:59.857Z,2.20
2022-09-20T14:07:27.495Z,7.13
2022-09-20T14:09:54.576Z,4.45
2022-09-20T14:12:23.254Z,3.67
2022-09-20T14:14:50.327Z,6.30
2022-09-20T14:17:19.632Z,4.28
2022-09-20T14:19:48.815Z,4.55
2022-09-20T14:22:32.762Z,3.35
2022-09-20T14:25:02.021Z,3.30
2022-09-20T14:27:30.367Z,9.40
2022-09-20T14:29:56.898Z,4.97
2022-09-20T14:32:50.059Z,5.43
2022-09-20T14:35:18.530Z,4.82
2022-09-20T14:37:56.385Z,2.55
2022-09-20T14:40:26.502Z,5.25
2022-09-20T14:42:56.604Z,3.25
2022-09-20T14:45:34.204Z,5.07
2022-09-20T14:48:22.821Z,8.63
2022-09-20T14:51:26.933Z,4.35
2022-09-20T14:54:04.824Z,7.32
2022-09-20T14:56:43.646Z,4.65
2022-09-20T14:59:26.621Z,6.40
2022-09-20T15:02:03.279Z,5.20
2022-09-20T15:04:32.001Z,6.60
2022-09-20T15:07:02.856Z,4.60
2022-09-20T15:09:29.313Z,4.50
2022-09-20T15:12:05.979Z,6.47
2022-09-20T15:14:37.213Z,3.90
2022-09-20T15:17:04.340Z,6.90
2022-09-20T15:19:30.143Z,4.05
2022-09-20T15:21:56.314Z,4.05
2022-09-20T15:24:22.194Z,4.60
2022-09-20T15:26:48.216Z,5.47
2022-09-20T15:29:16.593Z,4.25
2022-09-20T15:31:44.168Z,2.83
2022-09-20T15:34:11.907Z,7.72
2022-09-20T15:36:39.697Z,6.55
2022-09-20T15:39:05.684Z,6.00
2022-09-20T15:41:32.135Z,4.60
2022-09-20T15:43:58.905Z,3.55
2022-09-20T15:46:28.005Z,10.88
2022-09-20T15:48:55.567Z,4.88
2022-09-20T15:51:21.740Z,1.77
2022-09-20T15:53:56.006Z,5.30
2022-09-20T15:56:23.140Z,4.22
2022-09-20T15:59:03.414Z,5.75
2022-09-20T16:01:38.875Z,6.03
2022-09-20T16:06:36.641Z,3.83
2022-09-20T16:09:03.705Z,5.82
2022-09-20T16:11:30.246Z,5.43
2022-09-20T16:13:58.041Z,4.13
2022-09-20T16:16:26.115Z,4.22
2022-09-20T16:19:11.330Z,8.55
2022-09-20T16:21:40.575Z,5.53
2022-09-20T16:24:06.954Z,5.63
2022-09-20T16:26:33.811Z,6.82
2022-09-20T16:29:01.760Z,9.38
2022-09-20T16:31:29.773Z,5.30
2022-09-20T16:33:56.436Z,3.25
2022-09-20T16:36:27.280Z,5.00
2022-09-20T16:38:54.597Z,7.93
2022-09-20T16:41:22.332Z,4.35
2022-09-20T16:43:51.420Z,3.85
2022-09-20T16:46:26.432Z,5.65
2022-09-20T16:48:56.307Z,4.20
2022-09-20T16:51:29.084Z,4.18
2022-09-20T16:53:55.321Z,5.78
2022-09-20T16:56:25.908Z,11.75
2022-09-20T16:58:52.959Z,4.43
2022-09-20T17:01:18.984Z,4.50
2022-09-20T17:03:46.328Z,3.97
2022-09-20T17:06:13.669Z,11.07
2022-09-20T17:08:40.354Z,6.93
2022-09-20T17:11:13.382Z,5.20
2022-09-20T17:13:40.740Z,7.70
2022-09-20T17:16:11.909Z,7.45
2022-09-20T17:18:41.188Z,7.32
2022-09-20T17:21:09.645Z,6.43
2022-09-20T17:23:35.884Z,6.20
2022-09-20T17:26:14.233Z,5.07
2022-09-20T17:28:48.551Z,5.38
2022-09-20T17:31:17.051Z,7.05
2022-09-20T17:33:44.349Z,4.68
2022-09-20T17:36:18.221Z,5.45
2022-09-20T17:38:45.687Z,5.30
2022-09-20T17:41:15.251Z,5.32
2022-09-20T17:43:42.634Z,8.40
2022-09-20T17:46:20.974Z,2.83
2022-09-20T17:48:49.780Z,5.40
2022-09-20T17:51:17.861Z,3.28
2022-09-20T17:53:44.462Z,5.00
2022-09-20T17:56:12.098Z,8.60
2022-09-20T17:58:39.066Z,9.35
2022-09-20T18:01:13.567Z,3.60
2022-09-20T18:03:45.685Z,8.85
2022-09-20T18:06:11.586Z,5.57
2022-09-20T18:08:37.550Z,9.05
2022-09-20T18:11:04.078Z,6.82
2022-09-20T18:13:30.236Z,5.57
2022-09-20T18:15:56.204Z,7.50
2022-09-20T18:18:22.169Z,6.38
2022-09-20T18:20:48.260Z,5.88
2022-09-20T18:23:14.330Z,7.38
2022-09-20T18:25:58.429Z,6.47
2022-09-20T18:28:24.248Z,9.20
2022-09-20T18:31:03.275Z,9.88
2022-09-20T18:33:30.076Z,11.95
2022-09-20T18:36:04.616Z,5.13
2022-09-20T18:38:32.375Z,9.50
2022-09-20T18:40:59.799Z,8.70
2022-09-20T18:43:30.258Z,3.38
2022-09-20T18:45:56.877Z,9.57
2022-09-20T18:48:24.404Z,4.53
2022-09-20T18:51:01.434Z,6.38
2022-09-20T18:53:32.504Z,4.60
2022-09-20T18:56:13.134Z,4.35
2022-09-20T18:58:39.392Z,4.20
2022-09-20T19:01:25.033Z,5.80
2022-09-20T19:04:09.449Z,5.45
2022-09-20T19:06:43.333Z,6.05
2022-09-20T19:09:23.492Z,6.50
2022-09-20T19:12:03.451Z,4.50
2022-09-20T19:14:51.613Z,2.80
2022-09-20T19:17:25.641Z,7.00
2022-09-20T19:20:03.318Z,6.03
2022-09-20T19:22:40.306Z,5.75
2022-09-20T19:25:28.301Z,6.13
2022-09-20T19:27:54.238Z,3.63
2022-09-20T19:30:20.526Z,6.47
2022-09-20T19:32:46.949Z,6.35
2022-09-20T19:35:20.379Z,6.47
2022-09-20T19:38:04.997Z,6.03
2022-09-20T19:41:10.150Z,5.80
2022-09-20T19:43:54.641Z,6.43
2022-09-20T19:46:32.393Z,5.93
2022-09-20T19:49:36.771Z,3.38
2022-09-20T19:52:03.885Z,4.95
2022-09-20T19:54:30.691Z,6.07
2022-09-20T19:56:58.710Z,5.97
2022-09-20T19:59:26.601Z,5.57
2022-09-20T20:01:53.593Z,7.05
2022-09-20T20:04:20.580Z,5.57
2022-09-20T20:07:13.401Z,4.82
2022-09-20T20:10:03.269Z,6.25
2022-09-20T20:12:49.435Z,6.50
2022-09-20T20:15:30.481Z,7.32
2022-09-20T20:18:16.817Z,4.82
2022-09-20T20:20:49.101Z,3.20
2022-09-20T20:23:40.115Z,7.05
2022-09-20T20:26:07.706Z,8.23
2022-09-20T20:28:34.067Z,5.18
2022-09-20T20:31:03.180Z,6.97
2022-09-20T20:33:30.044Z,5.43
2022-09-20T20:35:58.191Z,5.25
2022-09-20T20:38:27.686Z,7.25
2022-09-20T20:40:58.224Z,5.38
2022-09-20T20:43:24.256Z,9.43
2022-09-20T20:45:50.415Z,7.32
2022-09-20T20:48:16.461Z,11.10
2022-09-20T20:50:42.227Z,8.63
2022-09-20T20:53:08.020Z,8.82
2022-09-20T20:55:33.850Z,10.30
2022-09-20T20:57:59.699Z,6.93
2022-09-20T21:00:26.820Z,5.70
2022-09-20T21:02:57.796Z,7.45
2022-09-20T21:05:24.505Z,10.55
2022-09-20T21:07:51.772Z,9.38
2022-09-20T21:10:17.779Z,8.52
2022-09-20T21:12:43.729Z,8.35
2022-09-20T21:15:09.699Z,10.25
2022-09-20T21:17:36.389Z,6.07
2022-09-20T21:20:06.690Z,10.07
2022-09-20T21:22:33.072Z,10.90
2022-09-20T21:24:58.885Z,12.40
2022-09-20T21:27:25.358Z,7.80
2022-09-20T21:29:51.140Z,5.78
2022-09-20T21:32:17.175Z,8.32
2022-09-20T21:34:42.940Z,9.02
2022-09-20T21:37:10.534Z,8.57
2022-09-20T21:39:36.506Z,6.50
2022-09-20T21:42:05.875Z,4.80
2022-09-20T21:44:31.733Z,5.93
2022-09-20T21:46:57.480Z,6.63
2022-09-20T21:49:23.396Z,6.32
2022-09-20T21:51:51.340Z,5.68
2022-09-20T21:54:17.091Z,5.63
2022-09-20T21:56:43.038Z,8.10
2022-09-20T21:59:09.229Z,7.60
2022-09-20T22:01:37.040Z,6.25
2022-09-20T22:04:06.463Z,5.05
2022-09-20T22:06:35.605Z,6.95
2022-09-20T22:09:04.468Z,7.10
2022-09-20T22:11:38.158Z,4.88
2022-09-20T22:14:05.536Z,9.77
2022-09-20T22:16:33.749Z,10.57
2022-09-20T22:18:59.931Z,4.82
2022-09-20T22:21:28.138Z,5.45
2022-09-20T22:23:56.932Z,6.07
2022-09-20T22:26:25.095Z,5.97
2022-09-20T22:28:51.245Z,4.88
2022-09-20T22:31:19.878Z,11.13
2022-09-20T22:33:49.247Z,7.95
2022-09-20T22:36:17.714Z,5.57
2022-09-20T22:38:44.122Z,5.82
2022-09-20T22:41:11.229Z,9.93
2022-09-20T22:43:37.624Z,6.78
2022-09-20T22:46:18.536Z,4.78
2022-09-20T22:48:45.467Z,9.30
2022-09-20T22:51:22.606Z,6.65
2022-09-20T22:53:49.188Z,5.28
2022-09-20T22:56:20.392Z,9.30
2022-09-20T22:58:48.798Z,5.93
2022-09-20T23:01:16.357Z,6.53
2022-09-20T23:03:44.673Z,7.68
2022-09-20T23:06:13.418Z,6.50
2022-09-20T23:08:39.234Z,5.93
2022-09-20T23:11:05.631Z,10.35
2022-09-20T23:13:32.180Z,6.97
2022-09-20T23:15:58.452Z,5.10
2022-09-20T23:18:24.795Z,8.00
2022-09-20T23:21:11.137Z,5.55
2022-09-20T23:23:37.190Z,5.18
2022-09-20T23:26:08.088Z,3.67
2022-09-20T23:28:35.842Z,5.90
2022-09-20T23:31:09.707Z,7.03
2022-09-20T23:33:36.167Z,5.88
2022-09-20T23:36:07.577Z,6.15
2022-09-20T23:38:33.590Z,7.35
2022-09-20T23:41:07.559Z,7.82
2022-09-20T23:43:34.680Z,4.35
2022-09-20T23:46:01.558Z,3.35
2022-09-20T23:48:27.823Z,5.80
2022-09-20T23:50:54.185Z,7.13
2022-09-20T23:53:20.439Z,8.02
2022-09-20T23:55:46.366Z,8.18
2022-09-20T23:58:12.127Z,4.28
